createdAt,value
2023-02-11T00:03:00.208Z,8.73
2023-02-11T00:07:02.466Z,9.43
2023-02-11T00:11:04.790Z,10.83
2023-02-11T00:15:08.529Z,8.43
2023-02-11T00:19:10.662Z,11.33
2023-02-11T00:23:12.886Z,10.87
2023-02-11T00:27:15.062Z,12.07
2023-02-11T00:31:18.239Z,10.90
2023-02-11T00:35:20.487Z,11.20
2023-02-11T00:39:22.673Z,9.60
2023-02-11T00:43:25.448Z,10.83
2023-02-11T00:47:27.701Z,11.00
2023-02-11T00:51:29.871Z,11.63
2023-02-11T00:55:32.024Z,12.13
2023-02-11T00:59:34.187Z,11.03
2023-02-11T01:03:36.925Z,10.40
2023-02-11T01:07:39.244Z,11.43
2023-02-11T01:11:41.570Z,11.07
2023-02-11T01:15:43.741Z,8.83
2023-02-11T01:19:46.002Z,10.93
2023-02-11T01:23:48.240Z,7.30
2023-02-11T01:27:50.389Z,9.80
2023-02-11T01:31:52.566Z,11.53
2023-02-11T01:35:54.784Z,11.57
2023-02-11T01:39:56.921Z,10.10
2023-02-11T01:43:59.123Z,10.03
2023-02-11T01:48:01.265Z,10.20
2023-02-11T01:52:12.509Z,9.80
2023-02-11T01:56:15.709Z,10.07
2023-02-11T02:00:20.154Z,9.97
2023-02-11T02:04:24.150Z,11.47
2023-02-11T02:08:31.920Z,9.70
2023-02-11T02:12:34.172Z,9.83
2023-02-11T02:16:37.544Z,9.83
2023-02-11T02:20:39.712Z,8.87
2023-02-11T02:24:57.225Z,9.50
2023-02-11T02:29:17.912Z,10.03
2023-02-11T02:33:23.322Z,12.33
2023-02-11T02:37:31.240Z,8.43
2023-02-11T02:41:34.839Z,8.93
2023-02-11T02:45:36.994Z,8.50
2023-02-11T02:49:39.197Z,10.63
2023-02-11T02:53:41.374Z,9.13
2023-02-11T02:57:57.036Z,10.13
2023-02-11T03:02:02.145Z,8.97
2023-02-11T03:06:09.209Z,8.77
2023-02-11T03:10:15.039Z,10.40
2023-02-11T03:14:18.808Z,6.13
2023-02-11T03:18:24.830Z,10.20
2023-02-11T03:22:28.801Z,6.63
2023-02-11T03:26:34.452Z,9.33
2023-02-11T03:30:41.431Z,8.63
2023-02-11T03:34:48.626Z,8.60
2023-02-11T03:38:53.014Z,8.00
2023-02-11T03:43:00.387Z,12.23
2023-02-11T03:47:03.561Z,12.10
2023-02-11T03:51:07.322Z,10.70
2023-02-11T03:55:14.396Z,9.73
2023-02-11T03:59:16.556Z,8.67
2023-02-11T04:03:18.765Z,7.80
2023-02-11T04:07:21.178Z,9.60
2023-02-11T04:11:23.429Z,6.07
2023-02-11T04:15:25.978Z,11.03
2023-02-11T04:19:28.104Z,10.53
2023-02-11T04:23:30.267Z,6.30
2023-02-11T04:27:32.480Z,9.30
2023-02-11T04:31:34.664Z,10.73
2023-02-11T04:35:36.808Z,9.60
2023-02-11T04:39:38.986Z,9.93
2023-02-11T04:43:41.229Z,9.40
2023-02-11T04:47:43.381Z,9.67
2023-02-11T04:51:48.934Z,8.30
2023-02-11T04:55:51.922Z,10.50
2023-02-11T04:59:54.268Z,9.47
2023-02-11T05:03:56.557Z,12.13
2023-02-11T05:07:58.740Z,12.17
2023-02-11T05:12:00.919Z,10.17
2023-02-11T05:16:03.064Z,10.37
2023-02-11T05:20:05.491Z,11.03
2023-02-11T05:24:07.929Z,8.50
2023-02-11T05:28:10.137Z,10.83
2023-02-11T05:32:12.345Z,11.47
2023-02-11T05:36:14.534Z,13.77
2023-02-11T05:40:16.867Z,7.27
2023-02-11T05:44:19.053Z,10.43
2023-02-11T05:48:21.215Z,7.93
2023-02-11T05:52:24.056Z,6.27
2023-02-11T05:56:26.167Z,10.63
2023-02-11T06:00:28.310Z,6.27
2023-02-11T06:04:30.503Z,7.07
2023-02-11T06:08:32.674Z,8.97
2023-02-11T06:12:34.787Z,4.93
2023-02-11T06:16:37.067Z,12.57
2023-02-11T06:20:39.213Z,7.70
2023-02-11T06:24:59.812Z,12.00
2023-02-11T06:29:02.886Z,8.43
2023-02-11T06:33:05.433Z,10.97
2023-02-11T06:37:07.606Z,12.00
2023-02-11T06:41:10.697Z,8.50
2023-02-11T06:45:12.837Z,11.87
2023-02-11T06:49:15.065Z,8.93
2023-02-11T06:53:17.184Z,11.73
2023-02-11T06:57:19.335Z,13.83
2023-02-11T07:01:22.122Z,12.23
2023-02-11T07:05:24.242Z,11.13
2023-02-11T07:09:26.451Z,14.57
2023-02-11T07:13:28.630Z,12.37
2023-02-11T07:17:30.812Z,11.03
2023-02-11T07:21:33.019Z,13.27
2023-02-11T07:25:36.120Z,8.50
2023-02-11T07:29:38.293Z,10.27
2023-02-11T07:33:40.540Z,10.83
2023-02-11T07:37:42.716Z,11.53
2023-02-11T07:41:44.875Z,12.17
2023-02-11T07:45:47.253Z,10.97
2023-02-11T07:49:49.430Z,9.37
2023-02-11T07:53:52.046Z,12.07
2023-02-11T07:57:54.284Z,10.93
2023-02-11T08:01:56.534Z,10.70
2023-02-11T08:05:58.809Z,11.37
2023-02-11T08:10:01.046Z,7.77
2023-02-11T08:14:03.271Z,9.33
2023-02-11T08:18:05.421Z,12.37
2023-02-11T08:22:07.583Z,11.43
2023-02-11T08:26:11.226Z,8.40
2023-02-11T08:30:13.641Z,8.70
2023-02-11T08:34:16.184Z,9.97
2023-02-11T08:38:18.360Z,11.57
2023-02-11T08:42:20.523Z,9.97
2023-02-11T08:46:22.789Z,7.30
2023-02-11T08:50:25.005Z,7.57
2023-02-11T08:54:27.153Z,5.80
2023-02-11T08:58:29.267Z,11.37
2023-02-11T09:02:31.449Z,9.70
2023-02-11T09:06:33.751Z,8.57
2023-02-11T09:10:35.905Z,9.30
2023-02-11T09:14:38.048Z,5.33
2023-02-11T09:18:40.278Z,2.77
2023-02-11T09:22:42.425Z,6.73
2023-02-11T09:26:44.713Z,8.03
2023-02-11T09:30:46.948Z,8.70
2023-02-11T09:34:49.186Z,6.50
2023-02-11T09:38:51.893Z,9.30
2023-02-11T09:43:06.222Z,5.17
2023-02-11T09:47:17.322Z,9.53
2023-02-11T09:51:22.550Z,9.40
2023-02-11T09:55:27.692Z,4.10
2023-02-11T09:59:29.902Z,8.27
2023-02-11T10:03:47.127Z,7.47
2023-02-11T10:07:55.991Z,7.83
2023-02-11T10:12:16.689Z,7.17
2023-02-11T10:16:44.971Z,7.53
2023-02-11T10:21:01.621Z,7.63
2023-02-11T10:25:09.022Z,7.00
2023-02-11T10:29:15.475Z,8.10
2023-02-11T10:33:27.365Z,5.60
2023-02-11T10:37:29.485Z,6.57
2023-02-11T10:41:34.398Z,8.33
2023-02-11T10:45:37.705Z,6.03
2023-02-11T10:49:43.879Z,8.43
2023-02-11T10:53:46.943Z,6.00
2023-02-11T10:57:57.177Z,8.60
2023-02-11T11:02:01.169Z,5.10
2023-02-11T11:06:04.444Z,5.23
2023-02-11T11:10:06.802Z,6.50
2023-02-11T11:14:19.078Z,7.07
2023-02-11T11:18:23.656Z,6.73
2023-02-11T11:22:25.944Z,11.20
2023-02-11T11:26:29.637Z,7.13
2023-02-11T11:30:39.561Z,6.77
2023-02-11T11:34:49.298Z,7.73
2023-02-11T11:38:56.393Z,7.70
2023-02-11T11:43:06.431Z,4.13
2023-02-11T11:47:11.554Z,5.23
2023-02-11T11:51:14.102Z,5.53
2023-02-11T11:55:25.428Z,5.53
2023-02-11T11:59:27.722Z,5.87
2023-02-11T12:03:42.094Z,4.13
2023-02-11T12:07:59.527Z,4.23
2023-02-11T12:12:20.264Z,4.90
2023-02-11T12:16:30.858Z,3.73
2023-02-11T12:20:35.832Z,3.83
2023-02-11T12:24:47.224Z,5.57
2023-02-11T12:29:08.111Z,5.43
2023-02-11T12:33:25.301Z,5.80
2023-02-11T12:37:46.015Z,5.27
2023-02-11T12:41:48.099Z,3.80
2023-02-11T12:46:00.762Z,5.43
2023-02-11T12:50:07.767Z,3.40
2023-02-11T12:54:16.227Z,6.60
2023-02-11T12:58:29.682Z,5.07
2023-02-11T13:02:56.304Z,3.10
2023-02-11T13:07:00.927Z,7.27
2023-02-11T13:11:05.095Z,4.17
2023-02-11T13:15:08.460Z,5.13
2023-02-11T13:19:13.432Z,4.57
2023-02-11T13:23:28.930Z,5.07
2023-02-11T13:27:42.097Z,3.40
2023-02-11T13:31:53.124Z,5.80
2023-02-11T13:35:58.252Z,2.43
2023-02-11T13:40:05.603Z,3.43
2023-02-11T13:44:10.818Z,3.03
2023-02-11T13:48:38.983Z,3.17
2023-02-11T13:52:41.222Z,4.67
2023-02-11T13:56:43.337Z,3.40
2023-02-11T14:00:48.013Z,1.67
2023-02-11T14:05:05.106Z,3.20
2023-02-11T14:09:10.427Z,3.47
2023-02-11T14:13:22.752Z,2.33
2023-02-11T14:17:31.949Z,3.43
2023-02-11T14:21:40.379Z,4.17
2023-02-11T14:25:42.983Z,3.97
2023-02-11T14:29:51.268Z,3.50
2023-02-11T14:33:56.226Z,3.53
2023-02-11T14:37:58.375Z,3.47
2023-02-11T14:42:01.874Z,2.00
2023-02-11T14:46:04.220Z,3.47
2023-02-11T14:50:09.001Z,3.10
2023-02-11T14:54:17.151Z,2.77
2023-02-11T14:58:21.180Z,2.37
2023-02-11T15:02:25.230Z,3.40
2023-02-11T15:06:29.812Z,3.30
2023-02-11T15:10:33.934Z,2.93
2023-02-11T15:14:37.047Z,2.73
2023-02-11T15:18:41.095Z,2.47
2023-02-11T15:22:44.635Z,2.37
2023-02-11T15:26:55.849Z,2.23
2023-02-11T15:31:05.804Z,2.20
2023-02-11T15:35:09.216Z,2.73
